KFSM

Fort Smith Regional Airport

Fort Smith, Arkansas, USA
METAR KFSM 151853Z 09009KT 10SM OVC026 07/01 A2976 RMK AO2 SLP077 T00720011
Observed Flight Rules
Feb-15 @ 18:53 UTC (15 minutes ago) Marginal Visual Flight Rules
Wind Visibility Clouds
90° at 9 knots 10 miles
  • Overcast at 2,600' AGL
Temperatures Readings
Current 7°C / 45°F
Dewpoint 1°C / 34°F
Humidity 66%
Altimeter 29.76" Hg
Pressure 1007.7 hPa
Elevation 140
METAR KFSM 151853Z 09009KT 10SM OVC026 07/01 A2976 RMK AO2 SLP077 T00720011
Observed Flight Rules
Feb-15 @ 18:53 UTC
(15 minutes ago)
MVFR
Wind Visibility
90° at 9 knots 10 miles
Clouds
  • Overcast at 2,600' AGL
Temperature Dewpoint
7°C / 45°F 1°C / 34°F
Humidity Altimeter Pressure
66% 29.76" Hg 1007.7 hPa